createdAt,value
2022-08-05T00:01:36.124Z,77.98
2022-08-05T00:04:08.446Z,77.53
2022-08-05T00:06:38.944Z,80.56
2022-08-05T00:09:13.143Z,79.79
2022-08-05T00:11:48.751Z,78.49
2022-08-05T00:14:27.658Z,78.49
2022-08-05T00:16:58.593Z,81.04
2022-08-05T00:19:33.663Z,80.09
2022-08-05T00:22:11.142Z,81.17
2022-08-05T00:24:42.336Z,81.30
2022-08-05T00:27:16.554Z,82.43
2022-08-05T00:29:46.069Z,82.38
2022-08-05T00:32:15.682Z,81.53
2022-08-05T00:35:06.116Z,82.40
2022-08-05T00:37:52.547Z,81.19
2022-08-05T00:40:28.093Z,80.59
2022-08-05T00:43:00.417Z,81.70
2022-08-05T00:45:42.996Z,83.41
2022-08-05T00:48:14.074Z,83.32
2022-08-05T00:50:46.658Z,82.77
2022-08-05T00:54:00.001Z,82.93
2022-08-05T00:56:09.401Z,82.97
2022-08-05T00:58:39.457Z,81.63
2022-08-05T01:01:12.875Z,80.18
2022-08-05T01:03:43.015Z,80.77
2022-08-05T01:06:18.827Z,82.75
2022-08-05T01:08:50.134Z,85.63
2022-08-05T01:11:33.596Z,84.75
2022-08-05T01:14:15.857Z,82.34
2022-08-05T01:16:52.322Z,85.57
2022-08-05T01:20:02.149Z,86.33
2022-08-05T01:23:15.230Z,86.12
2022-08-05T01:26:19.949Z,89.79
2022-08-05T01:28:58.475Z,90.39
2022-08-05T01:31:44.575Z,89.83
2022-08-05T01:34:32.006Z,89.95
2022-08-05T01:37:24.957Z,88.65
2022-08-05T01:40:08.380Z,88.66
2022-08-05T01:42:43.399Z,90.34
2022-08-05T01:45:17.860Z,89.22
2022-08-05T01:47:54.459Z,89.95
2022-08-05T01:50:31.333Z,86.32
2022-08-05T01:53:05.679Z,88.35
2022-08-05T01:55:39.218Z,87.90
2022-08-05T01:58:15.416Z,90.30
2022-08-05T02:00:53.203Z,91.81
2022-08-05T02:03:31.610Z,90.18
2022-08-05T02:06:33.197Z,91.63
2022-08-05T02:08:58.966Z,94.95
2022-08-05T02:11:42.308Z,96.11
2022-08-05T02:14:28.215Z,98.53
2022-08-05T02:17:07.905Z,99.40
2022-08-05T02:19:53.936Z,98.32
2022-08-05T02:22:29.918Z,96.88
2022-08-05T02:25:07.425Z,97.83
2022-08-05T02:27:58.134Z,93.86
2022-08-05T02:30:51.548Z,95.09
2022-08-05T02:33:36.008Z,94.40
2022-08-05T02:36:15.631Z,96.14
2022-08-05T02:38:53.183Z,97.95
2022-08-05T02:41:28.834Z,99.02
2022-08-05T02:44:13.276Z,94.90
2022-08-05T02:46:58.902Z,98.36
2022-08-05T02:49:37.716Z,98.18
2022-08-05T02:52:13.539Z,98.91
2022-08-05T02:54:56.478Z,96.33
2022-08-05T02:58:09.288Z,95.15
2022-08-05T03:00:18.158Z,92.72
2022-08-05T03:02:49.770Z,95.21
2022-08-05T03:06:56.394Z,95.27
2022-08-05T03:08:13.372Z,93.65
2022-08-05T03:10:44.787Z,92.09
2022-08-05T03:13:52.058Z,97.24
2022-08-05T03:16:22.654Z,100.00
2022-08-05T03:18:51.857Z,100.00
2022-08-05T03:21:22.622Z,100.00
2022-08-05T03:23:59.334Z,100.00
2022-08-05T03:26:30.938Z,100.00
2022-08-05T03:29:01.801Z,100.00
2022-08-05T03:31:56.145Z,100.00
2022-08-05T03:34:20.811Z,100.00
2022-08-05T03:36:55.073Z,98.44
2022-08-05T03:39:27.306Z,100.00
2022-08-05T03:41:56.983Z,100.00
2022-08-05T03:44:29.022Z,100.00
2022-08-05T03:46:58.133Z,100.00
2022-08-05T03:49:31.078Z,100.00
2022-08-05T03:52:38.978Z,100.00
2022-08-05T03:56:05.757Z,100.00
2022-08-05T03:58:28.837Z,100.00
2022-08-05T04:01:04.030Z,100.00
2022-08-05T04:03:38.166Z,100.00
2022-08-05T04:06:08.888Z,100.00
2022-08-05T04:08:39.752Z,100.00
2022-08-05T04:11:09.910Z,100.00
2022-08-05T04:13:50.873Z,100.00
2022-08-05T04:16:24.104Z,100.00
2022-08-05T04:19:00.320Z,99.98
2022-08-05T04:22:09.351Z,100.00
2022-08-05T04:24:22.970Z,95.84
2022-08-05T04:26:51.972Z,100.00
2022-08-05T04:29:21.142Z,100.00
2022-08-05T04:31:52.006Z,95.80
2022-08-05T04:34:32.498Z,93.45
2022-08-05T04:37:05.651Z,93.65
2022-08-05T04:39:36.025Z,90.99
2022-08-05T04:42:06.254Z,100.00
2022-08-05T04:44:35.529Z,100.00
2022-08-05T04:47:08.817Z,97.80
2022-08-05T04:50:01.474Z,100.00
2022-08-05T04:52:28.473Z,94.41
2022-08-05T04:54:58.917Z,95.54
2022-08-05T04:57:47.463Z,93.86
2022-08-05T05:00:18.067Z,91.40
2022-08-05T05:02:47.155Z,91.60
2022-08-05T05:05:26.552Z,90.90
2022-08-05T05:08:02.540Z,88.83
2022-08-05T05:10:38.710Z,89.23
2022-08-05T05:13:10.574Z,89.41
2022-08-05T05:15:57.418Z,89.05
2022-08-05T05:18:33.340Z,88.15
2022-08-05T05:21:05.579Z,87.26
2022-08-05T05:24:02.179Z,88.04
2022-08-05T05:26:28.288Z,87.47
2022-08-05T05:29:02.670Z,88.46
2022-08-05T05:31:46.295Z,88.50
2022-08-05T05:34:15.519Z,88.64
2022-08-05T05:36:45.710Z,86.35
2022-08-05T05:39:16.221Z,85.15
2022-08-05T05:41:54.148Z,89.60
2022-08-05T05:44:36.621Z,84.10
2022-08-05T05:47:21.733Z,84.34
2022-08-05T05:49:56.541Z,84.15
2022-08-05T05:52:33.164Z,84.10
2022-08-05T05:55:13.555Z,85.25
2022-08-05T05:57:52.586Z,86.74
2022-08-05T06:00:31.510Z,83.16
2022-08-05T06:03:03.021Z,84.47
2022-08-05T06:05:32.343Z,81.87
2022-08-05T06:08:03.862Z,80.55
2022-08-05T06:10:36.576Z,79.28
2022-08-05T06:13:07.766Z,78.61
2022-08-05T06:16:27.409Z,79.75
2022-08-05T06:18:31.262Z,79.51
2022-08-05T06:21:01.498Z,79.02
2022-08-05T06:23:43.656Z,77.53
2022-08-05T06:26:21.272Z,79.88
2022-08-05T06:28:52.304Z,77.98
2022-08-05T06:31:22.000Z,77.76
2022-08-05T06:34:07.700Z,78.71
2022-08-05T06:36:57.851Z,77.71
2022-08-05T06:39:28.197Z,76.69
2022-08-05T06:41:58.803Z,77.20
2022-08-05T06:44:30.097Z,78.50
2022-08-05T06:46:59.681Z,77.76
2022-08-05T06:50:00.759Z,78.71
2022-08-05T06:52:37.244Z,78.18
2022-08-05T06:55:08.421Z,78.19
2022-08-05T06:57:57.564Z,80.33
2022-08-05T07:00:29.619Z,77.07
2022-08-05T07:02:58.690Z,79.22
2022-08-05T07:05:37.154Z,75.97
2022-08-05T07:08:10.948Z,76.64
2022-08-05T07:10:53.263Z,73.92
2022-08-05T07:13:59.431Z,73.04
2022-08-05T07:18:00.996Z,70.56
2022-08-05T07:20:23.028Z,68.91
2022-08-05T07:22:30.047Z,68.58
2022-08-05T07:25:21.908Z,66.52
2022-08-05T07:27:58.772Z,64.11
2022-08-05T07:30:34.025Z,62.39
2022-08-05T07:33:09.561Z,61.00
2022-08-05T07:36:04.200Z,60.39
2022-08-05T07:38:34.727Z,59.19
2022-08-05T07:42:08.400Z,57.51
2022-08-05T07:43:59.027Z,56.78
2022-08-05T07:46:30.946Z,54.70
2022-08-05T07:49:06.238Z,54.32
2022-08-05T07:51:54.563Z,53.44
2022-08-05T07:54:31.413Z,53.46
2022-08-05T07:57:22.566Z,51.92
2022-08-05T07:59:53.621Z,51.75
2022-08-05T08:02:31.293Z,51.82
2022-08-05T08:05:17.677Z,50.61
2022-08-05T08:08:00.129Z,49.90
2022-08-05T08:10:30.463Z,50.20
2022-08-05T08:12:59.896Z,48.80
2022-08-05T08:16:34.606Z,48.68
2022-08-05T08:18:20.888Z,49.10
2022-08-05T08:21:02.964Z,48.29
2022-08-05T08:24:01.500Z,48.92
2022-08-05T08:26:26.834Z,48.57
2022-08-05T08:29:22.012Z,48.44
2022-08-05T08:31:49.854Z,47.72
2022-08-05T08:34:30.256Z,47.98
2022-08-05T08:37:05.202Z,47.77
2022-08-05T08:39:37.534Z,47.87
2022-08-05T08:42:32.435Z,46.90
2022-08-05T08:45:22.114Z,46.65
2022-08-05T08:48:07.558Z,45.46
2022-08-05T08:51:04.052Z,45.20
2022-08-05T08:53:45.185Z,44.12
2022-08-05T08:56:14.602Z,43.84
2022-08-05T08:58:47.842Z,44.10
2022-08-05T09:01:19.011Z,43.53
2022-08-05T09:03:54.576Z,44.50
2022-08-05T09:06:29.961Z,44.39
2022-08-05T09:09:02.973Z,44.36
2022-08-05T09:11:51.249Z,43.40
2022-08-05T09:14:58.769Z,44.14
2022-08-05T09:17:16.155Z,43.00
2022-08-05T09:20:08.410Z,42.93
2022-08-05T09:23:08.983Z,43.55
2022-08-05T09:26:03.977Z,41.88
2022-08-05T09:28:32.477Z,41.48
2022-08-05T09:31:22.614Z,41.82
2022-08-05T09:33:59.117Z,41.58
2022-08-05T09:36:54.193Z,42.15
2022-08-05T09:39:41.470Z,39.58
2022-08-05T09:42:24.389Z,38.52
2022-08-05T09:45:17.701Z,37.01
2022-08-05T09:47:56.016Z,38.20
2022-08-05T09:50:38.157Z,38.24
2022-08-05T09:53:23.185Z,36.80
2022-08-05T09:56:04.757Z,36.01
2022-08-05T09:58:43.704Z,35.46
2022-08-05T10:01:31.602Z,35.23
2022-08-05T10:04:10.622Z,34.36
2022-08-05T10:06:41.463Z,33.46
2022-08-05T10:09:27.489Z,32.32
2022-08-05T10:12:30.629Z,33.45
2022-08-05T10:15:17.348Z,32.76
2022-08-05T10:18:09.968Z,32.71
2022-08-05T10:20:44.186Z,32.30
2022-08-05T10:23:33.881Z,32.58
2022-08-05T10:26:14.458Z,31.95
2022-08-05T10:28:45.212Z,30.77
2022-08-05T10:32:48.233Z,31.61
2022-08-05T10:34:08.476Z,31.15
2022-08-05T10:36:38.912Z,30.83
2022-08-05T10:39:24.622Z,31.47
2022-08-05T10:42:14.593Z,31.32
2022-08-05T10:44:51.554Z,29.21
2022-08-05T10:47:26.198Z,30.29
2022-08-05T10:50:32.299Z,30.90
2022-08-05T10:52:58.709Z,30.02
2022-08-05T10:55:30.305Z,29.70
2022-08-05T10:58:11.234Z,30.21
2022-08-05T11:00:48.416Z,30.37
2022-08-05T11:03:27.110Z,29.91
2022-08-05T11:06:08.314Z,30.31
2022-08-05T11:08:39.382Z,29.58
2022-08-05T11:11:52.143Z,30.62
2022-08-05T11:14:49.438Z,29.35
2022-08-05T11:18:07.390Z,30.19
2022-08-05T11:20:43.867Z,30.14
2022-08-05T11:24:02.515Z,30.13
2022-08-05T11:26:28.904Z,29.07
2022-08-05T11:29:12.331Z,28.36
2022-08-05T11:31:58.579Z,27.92
2022-08-05T11:34:38.938Z,28.62
2022-08-05T11:38:26.390Z,28.42
2022-08-05T11:40:02.682Z,30.33
2022-08-05T11:42:37.830Z,29.42
2022-08-05T11:45:14.450Z,29.37
2022-08-05T11:47:56.348Z,29.20
2022-08-05T11:50:26.871Z,29.09
2022-08-05T11:52:58.440Z,27.98
2022-08-05T11:55:32.164Z,28.08
2022-08-05T11:58:10.029Z,28.84
2022-08-05T12:00:44.492Z,29.03
2022-08-05T12:03:29.309Z,28.46
2022-08-05T12:06:05.858Z,28.42
2022-08-05T12:08:50.633Z,28.38
2022-08-05T12:11:22.208Z,28.87
2022-08-05T12:13:58.696Z,29.88
2022-08-05T12:16:31.318Z,28.23
2022-08-05T12:19:00.920Z,27.16
2022-08-05T12:21:33.617Z,28.70
2022-08-05T12:24:11.633Z,27.73
2022-08-05T12:26:44.150Z,27.72
2022-08-05T12:29:16.177Z,27.63
2022-08-05T12:31:54.321Z,27.10
2022-08-05T12:34:28.280Z,28.16
2022-08-05T12:36:59.168Z,27.32
2022-08-05T12:39:34.752Z,27.84
2022-08-05T12:42:14.873Z,29.04
2022-08-05T12:44:45.991Z,27.33
2022-08-05T12:47:30.602Z,28.26
2022-08-05T12:50:03.594Z,26.70
2022-08-05T12:52:38.782Z,27.16
2022-08-05T12:55:25.161Z,27.46
2022-08-05T12:58:39.161Z,26.42
2022-08-05T13:02:02.062Z,27.34
2022-08-05T13:03:41.959Z,27.30
2022-08-05T13:06:17.171Z,26.74
2022-08-05T13:08:51.597Z,25.93
2022-08-05T13:12:01.025Z,25.76
2022-08-05T13:14:24.776Z,26.79
2022-08-05T13:17:10.167Z,26.29
2022-08-05T13:19:52.396Z,26.53
2022-08-05T13:22:28.314Z,26.61
2022-08-05T13:25:05.140Z,27.87
2022-08-05T13:27:39.351Z,26.96
2022-08-05T13:30:34.629Z,26.61
2022-08-05T13:33:01.212Z,26.35
2022-08-05T13:35:47.515Z,26.41
2022-08-05T13:38:31.028Z,25.85
2022-08-05T13:41:03.782Z,25.93
2022-08-05T13:43:44.738Z,28.62
2022-08-05T13:46:43.772Z,27.23
2022-08-05T13:49:13.654Z,26.48
2022-08-05T13:51:45.779Z,26.28
2022-08-05T13:54:24.834Z,26.67
2022-08-05T13:56:54.516Z,26.88
2022-08-05T13:59:27.173Z,27.49
2022-08-05T14:02:00.149Z,26.51
2022-08-05T14:04:50.860Z,26.90
2022-08-05T14:07:55.458Z,27.93
2022-08-05T14:10:14.047Z,27.63
2022-08-05T14:12:49.121Z,26.64
2022-08-05T14:16:07.195Z,26.78
2022-08-05T14:18:17.818Z,26.80
2022-08-05T14:20:48.690Z,27.14
2022-08-05T14:23:24.648Z,26.79
2022-08-05T14:25:58.551Z,26.00
2022-08-05T14:28:29.661Z,26.36
2022-08-05T14:31:01.383Z,26.18
2022-08-05T14:34:00.089Z,26.33
2022-08-05T14:36:25.599Z,26.18
2022-08-05T14:38:55.332Z,26.89
2022-08-05T14:41:24.958Z,27.12
2022-08-05T14:44:00.146Z,26.06
2022-08-05T14:46:36.557Z,26.54
2022-08-05T14:49:08.342Z,27.76
2022-08-05T14:51:39.024Z,25.83
2022-08-05T14:54:28.223Z,28.43
2022-08-05T14:57:05.323Z,27.85
2022-08-05T14:59:38.824Z,27.39
2022-08-05T15:02:14.704Z,27.52
2022-08-05T15:04:47.882Z,26.97
2022-08-05T15:08:06.256Z,27.27
2022-08-05T15:10:10.138Z,27.54
2022-08-05T15:12:59.859Z,26.92
2022-08-05T15:15:55.609Z,26.90
2022-08-05T15:18:21.760Z,26.53
2022-08-05T15:20:51.042Z,27.09
2022-08-05T15:23:20.541Z,26.64
2022-08-05T15:25:52.302Z,26.99
2022-08-05T15:28:27.112Z,26.94
2022-08-05T15:30:57.594Z,27.51
2022-08-05T15:34:05.507Z,27.27
2022-08-05T15:36:24.513Z,27.07
2022-08-05T15:40:41.546Z,27.61
2022-08-05T15:41:58.045Z,27.81
2022-08-05T15:44:30.334Z,27.53
2022-08-05T15:47:03.618Z,28.01
2022-08-05T15:49:52.076Z,27.24
2022-08-05T15:52:51.575Z,28.67
2022-08-05T15:55:15.632Z,28.24
2022-08-05T15:57:46.003Z,27.98
2022-08-05T16:00:26.005Z,28.74
2022-08-05T16:03:07.894Z,29.19
2022-08-05T16:05:39.028Z,29.75
2022-08-05T16:08:10.784Z,30.89
2022-08-05T16:10:45.071Z,30.41
2022-08-05T16:13:19.283Z,31.10
2022-08-05T16:15:53.577Z,31.70
2022-08-05T16:18:28.102Z,32.08
2022-08-05T16:20:59.908Z,32.17
2022-08-05T16:23:53.657Z,32.52
2022-08-05T16:26:26.590Z,32.84
2022-08-05T16:28:56.710Z,34.28
2022-08-05T16:31:25.793Z,34.80
2022-08-05T16:34:14.997Z,34.99
2022-08-05T16:38:01.693Z,35.24
2022-08-05T16:40:26.499Z,35.81
2022-08-05T16:43:19.220Z,36.27
2022-08-05T16:46:23.784Z,36.09
2022-08-05T16:49:17.817Z,36.79
2022-08-05T16:51:57.009Z,37.40
2022-08-05T16:54:33.176Z,37.20
2022-08-05T16:57:02.350Z,37.41
2022-08-05T16:59:31.727Z,37.57
2022-08-05T17:02:01.104Z,37.42
2022-08-05T17:04:30.766Z,37.54
2022-08-05T17:07:01.867Z,37.99
2022-08-05T17:09:55.949Z,39.01
2022-08-05T17:12:50.638Z,38.73
2022-08-05T17:15:15.847Z,39.23
2022-08-05T17:17:54.712Z,39.68
2022-08-05T17:20:25.180Z,40.66
2022-08-05T17:22:57.510Z,41.27
2022-08-05T17:25:39.227Z,41.18
2022-08-05T17:28:10.003Z,40.87
2022-08-05T17:30:42.425Z,42.04
2022-08-05T17:33:20.118Z,43.13
2022-08-05T17:36:08.397Z,42.58
2022-08-05T17:38:39.903Z,43.52
2022-08-05T17:41:11.713Z,42.59
2022-08-05T17:44:00.126Z,43.29
2022-08-05T17:46:31.563Z,43.63
2022-08-05T17:49:05.027Z,43.61
2022-08-05T17:51:40.140Z,44.40
2022-08-05T17:54:10.232Z,44.84
2022-08-05T17:56:40.465Z,45.59
2022-08-05T17:59:16.061Z,44.85
2022-08-05T18:01:51.712Z,45.52
2022-08-05T18:04:21.467Z,45.49
2022-08-05T18:07:00.572Z,44.97
2022-08-05T18:09:59.543Z,46.33
2022-08-05T18:12:24.365Z,46.45
2022-08-05T18:14:53.587Z,46.96
2022-08-05T18:18:00.709Z,47.23
2022-08-05T18:20:14.118Z,47.84
2022-08-05T18:22:54.087Z,48.03
2022-08-05T18:25:25.145Z,48.55
2022-08-05T18:27:55.632Z,49.70
2022-08-05T18:30:26.349Z,47.63
2022-08-05T18:33:00.901Z,49.37
2022-08-05T18:36:01.421Z,49.90
2022-08-05T18:38:26.488Z,50.71
2022-08-05T18:44:33.067Z,50.63
2022-08-05T18:47:05.047Z,51.59
2022-08-05T18:49:57.398Z,51.01
2022-08-05T18:52:36.938Z,51.76
2022-08-05T18:55:21.465Z,51.85
2022-08-05T18:57:53.350Z,51.82
2022-08-05T19:00:34.881Z,51.55
2022-08-05T19:03:55.191Z,55.27
2022-08-05T19:06:55.096Z,56.60
2022-08-05T19:09:46.060Z,56.85
2022-08-05T19:12:53.588Z,57.05
2022-08-05T19:15:57.559Z,57.86
2022-08-05T19:18:39.775Z,58.36
2022-08-05T19:21:25.187Z,59.75
2022-08-05T19:24:07.943Z,60.49
2022-08-05T19:26:54.967Z,61.84
2022-08-05T19:29:35.739Z,62.48
2022-08-05T19:32:26.167Z,63.52
2022-08-05T19:35:55.729Z,62.70
2022-08-05T19:38:35.728Z,65.44
2022-08-05T19:42:05.330Z,65.17
2022-08-05T19:44:50.516Z,67.61
2022-08-05T19:47:55.715Z,67.16
2022-08-05T19:51:56.342Z,68.29
2022-08-05T19:54:29.420Z,69.93
2022-08-05T19:57:18.566Z,69.70
2022-08-05T20:00:04.227Z,70.80
2022-08-05T20:02:36.339Z,70.91
2022-08-05T20:05:24.583Z,70.69
2022-08-05T20:08:44.041Z,69.94
2022-08-05T20:11:19.471Z,70.87
2022-08-05T20:13:58.097Z,71.50
2022-08-05T20:16:43.812Z,71.65
2022-08-05T20:19:13.051Z,73.63
2022-08-05T20:21:46.034Z,73.32
2022-08-05T20:24:29.441Z,73.43
2022-08-05T20:26:59.814Z,75.19
2022-08-05T20:29:37.430Z,75.80
2022-08-05T20:32:10.220Z,74.92
2022-08-05T20:34:39.744Z,76.20
2022-08-05T20:37:24.265Z,77.08
2022-08-05T20:40:09.481Z,76.75
2022-08-05T20:42:41.985Z,77.81
2022-08-05T20:45:12.952Z,77.47
2022-08-05T20:47:41.942Z,78.67
2022-08-05T20:50:12.362Z,80.00
2022-08-05T20:52:44.361Z,81.04
2022-08-05T20:56:08.062Z,81.30
2022-08-05T20:58:08.482Z,82.22
2022-08-05T21:00:52.117Z,80.64
2022-08-05T21:03:26.324Z,82.29
2022-08-05T21:05:55.591Z,83.66
2022-08-05T21:08:46.071Z,84.59
2022-08-05T21:12:10.519Z,85.46
2022-08-05T21:14:26.707Z,88.61
2022-08-05T21:16:56.049Z,94.83
2022-08-05T21:19:28.389Z,97.97
2022-08-05T21:21:57.479Z,100.00
2022-08-05T21:24:26.519Z,100.00
2022-08-05T21:26:58.310Z,100.00
2022-08-05T21:29:31.939Z,100.00
2022-08-05T21:32:03.583Z,100.00
2022-08-05T21:34:32.966Z,100.00
2022-08-05T21:37:08.773Z,100.00
2022-08-05T21:39:40.603Z,100.00
2022-08-05T21:42:30.976Z,100.00
2022-08-05T21:45:00.065Z,100.00
2022-08-05T21:47:54.993Z,100.00
2022-08-05T21:50:18.595Z,100.00
2022-08-05T21:52:47.680Z,100.00
2022-08-05T21:55:17.164Z,100.00
2022-08-05T21:57:47.443Z,100.00
2022-08-05T22:00:18.518Z,100.00
2022-08-05T22:02:47.970Z,100.00
2022-08-05T22:05:17.768Z,100.00
2022-08-05T22:07:59.457Z,100.00
2022-08-05T22:10:31.521Z,100.00
2022-08-05T22:14:05.087Z,100.00
2022-08-05T22:16:01.136Z,100.00
2022-08-05T22:18:31.109Z,100.00
2022-08-05T22:21:04.073Z,100.00
2022-08-05T22:24:02.076Z,100.00
2022-08-05T22:26:55.318Z,100.00
2022-08-05T22:29:26.125Z,100.00
2022-08-05T22:32:02.637Z,100.00
2022-08-05T22:34:32.876Z,100.00
2022-08-05T22:37:04.033Z,100.00
2022-08-05T22:39:35.041Z,100.00
2022-08-05T22:42:12.327Z,100.00
2022-08-05T22:44:53.491Z,100.00
2022-08-05T22:47:29.951Z,100.00
2022-08-05T22:50:20.330Z,100.00
2022-08-05T22:52:51.382Z,100.00
2022-08-05T22:55:23.013Z,100.00
2022-08-05T22:57:53.671Z,100.00
2022-08-05T23:00:26.609Z,100.00
2022-08-05T23:02:58.108Z,100.00
2022-08-05T23:05:27.603Z,100.00
2022-08-05T23:07:56.594Z,100.00
2022-08-05T23:10:25.605Z,100.00
2022-08-05T23:12:55.943Z,100.00
2022-08-05T23:15:26.988Z,100.00
2022-08-05T23:18:03.646Z,100.00
2022-08-05T23:20:37.566Z,100.00
2022-08-05T23:23:08.883Z,100.00
2022-08-05T23:25:53.523Z,100.00
2022-08-05T23:28:26.910Z,100.00
2022-08-05T23:31:02.321Z,100.00
2022-08-05T23:34:04.084Z,100.00
2022-08-05T23:36:40.149Z,100.00
2022-08-05T23:39:17.687Z,100.00
2022-08-05T23:42:01.729Z,100.00
2022-08-05T23:44:32.247Z,100.00
2022-08-05T23:47:14.497Z,100.00
2022-08-05T23:49:47.640Z,100.00
2022-08-05T23:52:30.527Z,100.00
2022-08-05T23:55:02.543Z,100.00
2022-08-05T23:57:37.385Z,100.00
